createdAt,value
2023-07-30T00:01:28.509Z,18.07
2023-07-30T00:03:00.946Z,18.07
2023-07-30T00:04:33.160Z,18.05
2023-07-30T00:06:05.373Z,18.02
2023-07-30T00:07:37.585Z,18.03
2023-07-30T00:09:09.726Z,18.04
2023-07-30T00:10:41.886Z,18.04
2023-07-30T00:12:14.039Z,18.01
2023-07-30T00:13:46.185Z,17.99
2023-07-30T00:15:18.430Z,17.98
2023-07-30T00:16:50.694Z,18.00
2023-07-30T00:18:22.975Z,18.01
2023-07-30T00:19:55.415Z,17.99
2023-07-30T00:21:27.656Z,17.99
2023-07-30T00:22:59.868Z,17.90
2023-07-30T00:24:32.404Z,17.87
2023-07-30T00:26:04.759Z,17.86
2023-07-30T00:27:36.999Z,17.86
2023-07-30T00:29:09.205Z,17.82
2023-07-30T00:30:41.562Z,17.82
2023-07-30T00:32:17.412Z,17.79
2023-07-30T00:33:49.599Z,17.78
2023-07-30T00:35:22.037Z,17.76
2023-07-30T00:36:54.219Z,17.76
2023-07-30T00:38:26.635Z,17.74
2023-07-30T00:39:58.949Z,17.71
2023-07-30T00:41:31.124Z,17.69
2023-07-30T00:43:03.295Z,17.72
2023-07-30T00:44:35.678Z,17.68
2023-07-30T00:46:07.955Z,17.66
2023-07-30T00:47:40.293Z,17.63
2023-07-30T00:49:12.498Z,17.63
2023-07-30T00:50:44.776Z,17.68
2023-07-30T00:52:20.862Z,17.74
2023-07-30T00:53:53.036Z,17.71
2023-07-30T00:55:25.164Z,17.73
2023-07-30T00:56:57.526Z,17.75
2023-07-30T00:58:29.723Z,17.74
2023-07-30T01:00:05.992Z,17.74
2023-07-30T01:01:40.998Z,17.76
2023-07-30T01:04:47.184Z,17.72
2023-07-30T01:06:22.169Z,17.67
2023-07-30T01:07:54.290Z,17.57
2023-07-30T01:09:26.927Z,17.57
2023-07-30T01:10:59.535Z,17.62
2023-07-30T01:12:33.248Z,17.61
2023-07-30T01:14:06.908Z,17.62
2023-07-30T01:15:39.753Z,17.62
2023-07-30T01:17:13.331Z,17.60
2023-07-30T01:18:45.485Z,17.56
2023-07-30T01:20:17.637Z,17.55
2023-07-30T01:21:49.773Z,17.51
2023-07-30T01:23:21.916Z,17.48
2023-07-30T01:24:54.328Z,17.49
2023-07-30T01:26:29.452Z,17.53
2023-07-30T01:28:03.885Z,17.49
2023-07-30T01:29:57.003Z,17.49
2023-07-30T01:31:32.113Z,17.50
2023-07-30T01:33:05.445Z,17.49
2023-07-30T01:34:37.567Z,17.52
2023-07-30T01:36:10.918Z,17.49
2023-07-30T01:37:42.858Z,17.52
2023-07-30T01:39:15.650Z,17.45
2023-07-30T01:40:47.834Z,17.42
2023-07-30T01:42:20.055Z,17.40
2023-07-30T01:43:52.183Z,17.36
2023-07-30T01:45:24.366Z,17.34
2023-07-30T01:46:56.495Z,17.32
2023-07-30T01:48:28.676Z,17.29
2023-07-30T01:50:01.233Z,17.29
2023-07-30T01:51:33.444Z,17.27
2023-07-30T01:53:05.776Z,17.26
2023-07-30T01:54:38.002Z,17.25
2023-07-30T01:56:10.082Z,17.23
2023-07-30T01:57:42.208Z,17.20
2023-07-30T01:59:14.322Z,17.13
2023-07-30T02:00:46.898Z,17.13
2023-07-30T02:02:19.308Z,17.08
2023-07-30T02:03:51.560Z,17.07
2023-07-30T02:05:23.824Z,17.06
2023-07-30T02:06:55.996Z,17.04
2023-07-30T02:08:28.743Z,17.00
2023-07-30T02:10:01.726Z,16.98
2023-07-30T02:11:33.827Z,16.98
2023-07-30T02:13:06.107Z,16.98
2023-07-30T02:14:38.346Z,17.02
2023-07-30T02:16:10.549Z,17.05
2023-07-30T02:17:42.790Z,17.04
2023-07-30T02:19:15.036Z,17.03
2023-07-30T02:20:47.244Z,17.04
2023-07-30T02:22:19.404Z,17.03
2023-07-30T02:23:51.535Z,17.03
2023-07-30T02:25:23.698Z,17.00
2023-07-30T02:26:55.926Z,17.00
2023-07-30T02:28:28.235Z,16.99
2023-07-30T02:30:00.388Z,16.98
2023-07-30T02:31:32.768Z,16.99
2023-07-30T02:33:05.092Z,16.96
2023-07-30T02:34:37.244Z,16.95
2023-07-30T02:36:09.350Z,16.93
2023-07-30T02:37:41.486Z,16.92
2023-07-30T02:39:13.638Z,16.92
2023-07-30T02:40:45.734Z,16.94
2023-07-30T02:42:17.827Z,16.93
2023-07-30T02:43:49.950Z,16.91
2023-07-30T02:45:22.135Z,16.91
2023-07-30T02:46:54.203Z,16.96
2023-07-30T02:48:26.301Z,16.99
2023-07-30T02:49:58.382Z,16.98
2023-07-30T02:51:30.480Z,16.98
2023-07-30T02:53:02.531Z,16.95
2023-07-30T02:54:34.666Z,16.97
2023-07-30T02:56:06.828Z,17.00
2023-07-30T02:57:38.987Z,16.98
2023-07-30T02:59:11.052Z,16.96
2023-07-30T03:00:43.274Z,16.92
2023-07-30T03:02:15.489Z,16.85
2023-07-30T03:03:47.728Z,16.86
2023-07-30T03:05:19.846Z,16.85
2023-07-30T03:06:52.176Z,16.78
2023-07-30T03:08:24.372Z,16.78
2023-07-30T03:09:56.545Z,16.77
2023-07-30T03:11:28.695Z,16.79
2023-07-30T03:13:00.898Z,16.81
2023-07-30T03:14:33.113Z,16.83
2023-07-30T03:16:06.053Z,16.85
2023-07-30T03:17:38.182Z,16.83
2023-07-30T03:19:10.325Z,16.82
2023-07-30T03:20:42.625Z,16.83
2023-07-30T03:22:14.862Z,16.78
2023-07-30T03:23:47.102Z,16.79
2023-07-30T03:25:19.380Z,16.79
2023-07-30T03:26:51.601Z,16.79
2023-07-30T03:28:23.929Z,16.75
2023-07-30T03:29:56.220Z,16.74
2023-07-30T03:31:30.008Z,16.73
2023-07-30T03:33:02.300Z,16.73
2023-07-30T03:34:34.647Z,16.76
2023-07-30T03:36:06.984Z,16.77
2023-07-30T03:37:39.358Z,16.77
2023-07-30T03:39:12.236Z,16.77
2023-07-30T03:40:44.718Z,16.77
2023-07-30T03:42:17.772Z,16.81
2023-07-30T03:43:50.001Z,16.78
2023-07-30T03:45:22.293Z,16.78
2023-07-30T03:46:54.374Z,16.79
2023-07-30T03:48:26.608Z,16.79
2023-07-30T03:49:58.760Z,16.82
2023-07-30T03:51:30.983Z,16.84
2023-07-30T03:53:03.226Z,16.82
2023-07-30T03:54:35.654Z,16.82
2023-07-30T03:56:08.008Z,16.84
2023-07-30T03:57:40.330Z,16.90
2023-07-30T03:59:12.570Z,16.94
2023-07-30T04:00:44.786Z,16.98
2023-07-30T04:02:17.423Z,17.03
2023-07-30T04:03:49.745Z,17.06
2023-07-30T04:05:22.122Z,17.12
2023-07-30T04:06:54.308Z,17.17
2023-07-30T04:08:26.508Z,17.19
2023-07-30T04:09:58.727Z,17.23
2023-07-30T04:11:30.980Z,17.28
2023-07-30T04:13:03.500Z,17.33
2023-07-30T04:14:35.637Z,17.37
2023-07-30T04:16:07.920Z,17.42
2023-07-30T04:17:40.511Z,17.47
2023-07-30T04:19:12.721Z,17.52
2023-07-30T04:20:44.936Z,17.59
2023-07-30T04:22:20.155Z,17.68
2023-07-30T04:23:52.516Z,17.74
2023-07-30T04:25:40.079Z,17.84
2023-07-30T04:38:01.075Z,18.44
2023-07-30T04:39:36.506Z,18.35
2023-07-30T04:41:08.965Z,18.58
2023-07-30T04:42:41.271Z,18.66
2023-07-30T04:44:13.527Z,18.72
2023-07-30T04:45:45.867Z,18.80
2023-07-30T04:47:18.115Z,18.89
2023-07-30T04:48:50.267Z,18.94
2023-07-30T04:50:22.581Z,19.06
2023-07-30T04:51:54.798Z,19.15
2023-07-30T04:53:27.460Z,19.26
2023-07-30T04:54:59.670Z,19.38
2023-07-30T04:56:31.918Z,19.50
2023-07-30T04:58:05.021Z,19.58
2023-07-30T04:59:37.366Z,19.67
2023-07-30T05:01:09.591Z,19.73
2023-07-30T05:02:41.813Z,19.76
2023-07-30T05:04:14.208Z,19.80
2023-07-30T05:05:46.424Z,19.88
2023-07-30T05:07:18.704Z,19.95
2023-07-30T05:08:54.048Z,20.08
2023-07-30T05:10:26.267Z,20.10
2023-07-30T05:11:58.544Z,20.19
2023-07-30T05:13:30.794Z,20.29
2023-07-30T05:15:03.088Z,20.35
2023-07-30T05:16:35.366Z,20.45
2023-07-30T05:18:07.765Z,20.51
2023-07-30T05:19:40.033Z,20.62
2023-07-30T05:21:12.315Z,20.70
2023-07-30T05:22:44.539Z,20.79
2023-07-30T05:24:16.808Z,20.87
2023-07-30T05:25:48.997Z,20.97
2023-07-30T05:27:21.950Z,21.07
2023-07-30T05:28:54.215Z,21.16
2023-07-30T05:30:26.402Z,21.24
2023-07-30T05:31:58.624Z,21.30
2023-07-30T05:33:30.896Z,21.39
2023-07-30T05:35:03.525Z,21.48
2023-07-30T05:36:35.689Z,21.56
2023-07-30T05:38:07.942Z,21.66
2023-07-30T05:39:40.282Z,21.76
2023-07-30T05:41:12.512Z,21.86
2023-07-30T05:42:44.739Z,21.95
2023-07-30T05:44:17.241Z,22.02
2023-07-30T05:45:49.602Z,22.08
2023-07-30T05:47:21.831Z,22.17
2023-07-30T05:48:54.042Z,22.27
2023-07-30T05:50:26.247Z,22.32
2023-07-30T05:51:58.526Z,22.45
2023-07-30T05:53:30.742Z,22.53
2023-07-30T05:55:02.931Z,22.61
2023-07-30T05:56:35.154Z,22.69
2023-07-30T05:58:07.462Z,22.74
2023-07-30T05:59:39.670Z,22.81
2023-07-30T06:01:13.112Z,22.88
2023-07-30T06:04:19.178Z,23.02
2023-07-30T06:05:51.503Z,23.07
2023-07-30T06:07:23.652Z,23.12
2023-07-30T06:08:56.346Z,23.18
2023-07-30T06:10:28.639Z,23.24
2023-07-30T06:12:01.150Z,23.33
2023-07-30T06:13:33.458Z,23.40
2023-07-30T06:15:08.020Z,23.51
2023-07-30T06:16:40.274Z,23.58
2023-07-30T06:18:12.601Z,23.66
2023-07-30T06:19:44.848Z,23.71
2023-07-30T06:21:17.141Z,23.77
2023-07-30T06:22:49.328Z,23.82
2023-07-30T06:24:22.075Z,23.86
2023-07-30T06:25:54.319Z,23.91
2023-07-30T06:27:26.588Z,24.01
2023-07-30T06:28:59.036Z,24.11
2023-07-30T06:30:31.270Z,24.21
2023-07-30T06:32:03.660Z,24.31
2023-07-30T06:33:35.949Z,24.35
2023-07-30T06:35:08.788Z,24.43
2023-07-30T06:36:41.158Z,24.48
2023-07-30T06:38:13.499Z,24.52
2023-07-30T06:39:45.649Z,24.60
2023-07-30T06:41:17.953Z,24.69
2023-07-30T06:42:50.213Z,24.77
2023-07-30T06:44:22.437Z,24.86
2023-07-30T06:45:56.467Z,24.95
2023-07-30T06:47:28.841Z,25.03
2023-07-30T06:49:01.149Z,25.12
2023-07-30T06:50:33.597Z,25.22
2023-07-30T06:52:06.272Z,25.34
2023-07-30T06:53:38.506Z,25.43
2023-07-30T06:55:10.851Z,25.52
2023-07-30T06:56:43.080Z,25.60
2023-07-30T06:58:15.675Z,25.67
2023-07-30T06:59:47.892Z,25.75
2023-07-30T07:01:20.408Z,25.83
2023-07-30T07:02:53.070Z,25.93
2023-07-30T07:04:25.818Z,26.03
2023-07-30T07:05:58.437Z,26.13
2023-07-30T07:07:32.248Z,26.19
2023-07-30T07:09:04.840Z,26.23
2023-07-30T07:10:37.122Z,26.28
2023-07-30T07:12:10.527Z,26.33
2023-07-30T07:13:42.763Z,26.37
2023-07-30T07:15:15.463Z,26.42
2023-07-30T07:16:47.848Z,26.43
2023-07-30T07:18:20.175Z,26.48
2023-07-30T07:19:52.494Z,26.54
2023-07-30T07:21:25.110Z,26.60
2023-07-30T07:22:57.326Z,26.64
2023-07-30T07:24:29.616Z,26.69
2023-07-30T07:26:01.948Z,26.77
2023-07-30T07:27:34.274Z,26.86
2023-07-30T07:29:06.599Z,26.99
2023-07-30T07:30:39.025Z,27.07
2023-07-30T07:32:11.889Z,27.15
2023-07-30T07:33:46.477Z,27.24
2023-07-30T07:35:21.856Z,27.32
2023-07-30T07:36:53.992Z,27.34
2023-07-30T07:38:26.228Z,27.37
2023-07-30T07:39:58.544Z,27.37
2023-07-30T07:41:30.760Z,27.44
2023-07-30T07:43:03.016Z,27.49
2023-07-30T07:44:35.138Z,27.55
2023-07-30T07:46:11.819Z,27.58
2023-07-30T07:47:44.491Z,27.65
2023-07-30T07:49:16.794Z,27.70
2023-07-30T07:50:49.058Z,27.78
2023-07-30T07:52:22.268Z,27.84
2023-07-30T07:53:54.573Z,27.93
2023-07-30T07:55:26.785Z,28.01
2023-07-30T07:56:59.036Z,28.09
2023-07-30T07:58:32.236Z,28.19
2023-07-30T08:00:06.751Z,28.23
2023-07-30T08:01:39.588Z,28.28
2023-07-30T08:03:12.120Z,28.32
2023-07-30T08:04:44.522Z,28.36
2023-07-30T08:06:16.864Z,28.44
2023-07-30T08:07:49.475Z,28.54
2023-07-30T08:09:21.788Z,28.60
2023-07-30T08:10:54.550Z,28.69
2023-07-30T08:12:26.888Z,28.74
2023-07-30T08:13:59.156Z,28.76
2023-07-30T08:15:31.793Z,28.81
2023-07-30T08:17:04.447Z,28.85
2023-07-30T08:18:36.742Z,28.89
2023-07-30T08:20:09.385Z,28.93
2023-07-30T08:21:41.877Z,28.99
2023-07-30T08:23:14.115Z,29.05
2023-07-30T08:24:46.585Z,29.11
2023-07-30T08:26:18.925Z,29.16
2023-07-30T08:27:51.298Z,29.21
2023-07-30T08:29:23.515Z,29.26
2023-07-30T08:31:01.730Z,29.35
2023-07-30T08:32:35.351Z,29.36
2023-07-30T08:34:08.986Z,29.42
2023-07-30T08:35:41.305Z,29.52
2023-07-30T08:37:13.849Z,29.62
2023-07-30T08:38:46.315Z,29.66
2023-07-30T08:40:18.860Z,29.73
2023-07-30T08:41:51.700Z,29.79
2023-07-30T08:43:24.470Z,29.92
2023-07-30T08:44:57.187Z,30.03
2023-07-30T08:46:29.741Z,30.15
2023-07-30T08:48:02.318Z,30.23
2023-07-30T08:49:34.664Z,30.30
2023-07-30T08:51:07.147Z,30.37
2023-07-30T08:52:39.415Z,30.41
2023-07-30T08:54:14.063Z,30.51
2023-07-30T08:55:46.952Z,30.55
2023-07-30T08:57:20.993Z,30.63
2023-07-30T08:58:55.651Z,30.67
2023-07-30T09:00:32.637Z,30.68
2023-07-30T09:02:06.277Z,30.67
2023-07-30T09:03:42.126Z,30.69
2023-07-30T09:05:14.741Z,30.68
2023-07-30T09:06:53.485Z,30.72
2023-07-30T09:08:26.543Z,30.72
2023-07-30T09:09:58.871Z,30.73
2023-07-30T09:11:31.392Z,30.78
2023-07-30T09:13:04.555Z,30.86
2023-07-30T09:14:36.852Z,30.94
2023-07-30T09:16:16.685Z,31.03
2023-07-30T09:17:49.127Z,31.07
2023-07-30T09:19:21.506Z,31.12
2023-07-30T09:20:54.081Z,31.16
2023-07-30T09:22:28.575Z,31.21
2023-07-30T09:24:07.308Z,31.29
2023-07-30T09:25:40.330Z,31.33
2023-07-30T09:27:12.921Z,31.36
2023-07-30T09:28:45.300Z,31.38
2023-07-30T09:30:23.817Z,31.44
2023-07-30T09:31:56.976Z,31.46
2023-07-30T09:33:29.199Z,31.44
2023-07-30T09:35:12.392Z,31.55
2023-07-30T09:36:45.974Z,31.56
2023-07-30T09:38:20.739Z,31.60
2023-07-30T09:39:53.078Z,31.60
2023-07-30T09:41:25.550Z,31.64
2023-07-30T09:42:59.006Z,31.70
2023-07-30T09:44:34.615Z,31.73
2023-07-30T09:46:08.537Z,31.77
2023-07-30T09:47:40.924Z,31.86
2023-07-30T09:49:13.329Z,31.94
2023-07-30T09:50:46.500Z,32.05
2023-07-30T09:52:19.081Z,32.09
2023-07-30T09:53:51.844Z,32.11
2023-07-30T09:55:24.392Z,32.13
2023-07-30T09:56:56.555Z,32.16
2023-07-30T09:58:29.022Z,32.18
2023-07-30T10:00:03.026Z,32.21
2023-07-30T10:01:49.277Z,32.27
2023-07-30T10:03:21.939Z,32.27
2023-07-30T10:04:55.533Z,32.33
2023-07-30T10:06:31.541Z,32.33
2023-07-30T10:08:10.337Z,32.31
2023-07-30T10:09:47.487Z,32.35
2023-07-30T10:11:21.443Z,32.41
2023-07-30T10:12:55.219Z,32.45
2023-07-30T10:14:28.045Z,32.44
2023-07-30T10:16:00.805Z,32.46
2023-07-30T10:17:34.881Z,32.46
2023-07-30T10:19:07.725Z,32.45
2023-07-30T10:20:41.026Z,32.47
2023-07-30T10:22:13.378Z,32.43
2023-07-30T10:24:03.362Z,32.49
2023-07-30T10:25:50.754Z,32.54
2023-07-30T10:27:27.863Z,32.59
2023-07-30T10:29:18.823Z,32.64
2023-07-30T10:30:58.036Z,32.64
2023-07-30T10:32:40.406Z,32.67
2023-07-30T10:34:12.852Z,32.66
2023-07-30T10:35:47.874Z,32.70
2023-07-30T10:37:20.830Z,32.72
2023-07-30T10:38:53.419Z,32.76
2023-07-30T10:40:25.646Z,32.80
2023-07-30T10:42:02.689Z,32.82
2023-07-30T10:43:38.674Z,32.87
2023-07-30T10:45:11.341Z,32.84
2023-07-30T10:46:43.967Z,32.87
2023-07-30T10:48:16.860Z,32.93
2023-07-30T10:49:50.217Z,32.92
2023-07-30T10:51:22.798Z,32.97
2023-07-30T10:52:55.273Z,33.01
2023-07-30T10:54:27.926Z,33.05
2023-07-30T10:56:03.990Z,33.08
2023-07-30T10:57:36.397Z,33.13
2023-07-30T10:59:09.934Z,33.15
2023-07-30T11:00:42.556Z,33.18
2023-07-30T11:02:16.997Z,33.29
2023-07-30T11:03:53.340Z,33.27
2023-07-30T11:05:27.098Z,33.23
2023-07-30T11:06:59.476Z,33.24
2023-07-30T11:08:44.766Z,33.25
2023-07-30T11:10:17.336Z,33.23
2023-07-30T11:11:52.484Z,33.27
2023-07-30T11:13:26.213Z,33.30
2023-07-30T11:15:03.342Z,33.36
2023-07-30T11:16:37.026Z,33.39
2023-07-30T11:18:09.922Z,33.42
2023-07-30T11:19:47.083Z,33.45
2023-07-30T11:21:20.304Z,33.48
2023-07-30T11:22:52.804Z,33.49
2023-07-30T11:24:35.871Z,33.56
2023-07-30T11:26:09.467Z,33.56
2023-07-30T11:27:51.988Z,33.67
2023-07-30T11:29:24.256Z,33.68
2023-07-30T11:31:00.264Z,33.78
2023-07-30T11:32:33.398Z,33.84
2023-07-30T11:34:06.091Z,33.87
2023-07-30T11:35:38.565Z,33.90
2023-07-30T11:37:11.220Z,33.92
2023-07-30T11:38:43.858Z,33.98
2023-07-30T11:40:16.409Z,34.01
2023-07-30T11:41:49.223Z,34.04
2023-07-30T11:43:24.722Z,34.09
2023-07-30T11:44:57.206Z,34.06
2023-07-30T11:46:32.137Z,34.09
2023-07-30T11:48:12.977Z,34.15
2023-07-30T11:49:57.140Z,34.18
2023-07-30T11:51:30.976Z,34.13
2023-07-30T11:53:03.704Z,34.14
2023-07-30T11:54:36.118Z,34.19
2023-07-30T11:56:09.869Z,34.28
2023-07-30T11:57:42.273Z,34.30
2023-07-30T11:59:15.145Z,34.34
2023-07-30T12:00:47.779Z,34.38
2023-07-30T12:02:22.120Z,34.30
2023-07-30T12:04:02.090Z,34.29
2023-07-30T12:05:36.480Z,34.32
2023-07-30T12:07:12.350Z,34.36
2023-07-30T12:08:44.726Z,34.38
2023-07-30T12:10:19.493Z,34.44
2023-07-30T12:11:58.569Z,34.54
2023-07-30T12:13:31.221Z,34.51
2023-07-30T12:15:03.835Z,34.56
2023-07-30T12:16:36.282Z,34.59
2023-07-30T12:18:08.975Z,34.60
2023-07-30T12:19:42.285Z,34.58
2023-07-30T12:21:14.712Z,34.63
2023-07-30T12:22:47.072Z,34.65
2023-07-30T12:24:19.467Z,34.70
2023-07-30T12:25:52.676Z,34.75
2023-07-30T12:27:25.035Z,34.78
2023-07-30T12:28:57.366Z,34.71
2023-07-30T12:30:29.794Z,34.62
2023-07-30T12:32:04.759Z,34.70
2023-07-30T12:33:37.686Z,34.70
2023-07-30T12:35:10.076Z,34.76
2023-07-30T12:36:42.472Z,34.78
2023-07-30T12:38:15.037Z,34.77
2023-07-30T12:39:47.474Z,34.78
2023-07-30T12:41:21.643Z,34.80
2023-07-30T12:42:54.614Z,34.80
2023-07-30T12:44:27.245Z,34.81
2023-07-30T12:45:59.624Z,34.90
2023-07-30T12:47:33.439Z,34.83
2023-07-30T12:49:06.297Z,34.84
2023-07-30T12:50:39.084Z,34.84
2023-07-30T12:52:11.388Z,34.84
2023-07-30T12:53:43.874Z,34.85
2023-07-30T12:55:16.421Z,34.84
2023-07-30T12:56:49.000Z,34.81
2023-07-30T12:58:21.308Z,34.77
2023-07-30T12:59:53.603Z,34.78
2023-07-30T13:01:26.174Z,34.76
2023-07-30T13:02:58.879Z,34.72
2023-07-30T13:04:31.716Z,34.76
2023-07-30T13:06:04.201Z,34.71
2023-07-30T13:07:36.633Z,34.72
2023-07-30T13:09:09.110Z,34.73
2023-07-30T13:10:41.594Z,34.73
2023-07-30T13:12:14.014Z,34.74
2023-07-30T13:13:46.597Z,34.75
2023-07-30T13:15:19.124Z,34.74
2023-07-30T13:16:51.757Z,34.76
2023-07-30T13:18:24.432Z,34.76
2023-07-30T13:19:59.825Z,34.76
2023-07-30T13:21:32.239Z,34.78
2023-07-30T13:23:04.641Z,34.72
2023-07-30T13:24:38.034Z,34.62
2023-07-30T13:26:10.511Z,34.61
2023-07-30T13:27:42.877Z,34.60
2023-07-30T13:29:15.386Z,34.54
2023-07-30T13:30:48.029Z,34.52
2023-07-30T13:32:20.657Z,34.51
2023-07-30T13:33:53.563Z,34.52
2023-07-30T13:35:25.620Z,34.63
2023-07-30T13:36:58.306Z,34.64
2023-07-30T13:38:30.948Z,34.69
2023-07-30T13:40:03.878Z,34.70
2023-07-30T13:41:41.635Z,34.76
2023-07-30T13:43:14.684Z,34.77
2023-07-30T13:44:47.152Z,34.83
2023-07-30T13:46:19.660Z,34.84
2023-07-30T13:47:52.884Z,34.79
2023-07-30T13:49:25.633Z,34.78
2023-07-30T13:50:59.225Z,34.78
2023-07-30T13:52:31.869Z,34.76
2023-07-30T13:54:05.057Z,34.71
2023-07-30T13:55:37.536Z,34.67
2023-07-30T13:57:10.860Z,34.72
2023-07-30T13:58:43.425Z,34.79
2023-07-30T14:00:16.701Z,34.79
2023-07-30T14:01:49.279Z,34.81
2023-07-30T14:03:21.601Z,34.89
2023-07-30T14:04:53.843Z,34.80
2023-07-30T14:06:26.417Z,34.77
2023-07-30T14:07:58.884Z,34.77
2023-07-30T14:09:34.803Z,34.76
2023-07-30T14:11:07.330Z,34.71
2023-07-30T14:12:39.879Z,34.66
2023-07-30T14:14:12.480Z,34.54
2023-07-30T14:15:44.716Z,34.49
2023-07-30T14:17:17.234Z,34.48
2023-07-30T14:18:49.709Z,34.42
2023-07-30T14:20:22.577Z,34.42
2023-07-30T14:21:54.911Z,34.45
2023-07-30T14:23:28.113Z,34.40
2023-07-30T14:25:00.605Z,34.41
2023-07-30T14:26:33.055Z,34.46
2023-07-30T14:28:06.350Z,34.51
2023-07-30T14:29:38.607Z,34.49
2023-07-30T14:31:11.208Z,34.43
2023-07-30T14:32:43.621Z,34.43
2023-07-30T14:34:15.908Z,34.42
2023-07-30T14:35:48.396Z,34.47
2023-07-30T14:37:20.946Z,34.51
2023-07-30T14:38:53.470Z,34.53
2023-07-30T14:40:25.951Z,34.57
2023-07-30T14:41:58.363Z,34.45
2023-07-30T14:43:31.014Z,34.39
2023-07-30T14:45:03.743Z,34.41
2023-07-30T14:46:36.340Z,34.44
2023-07-30T14:48:08.919Z,34.45
2023-07-30T14:49:41.871Z,34.42
2023-07-30T14:51:14.415Z,34.43
2023-07-30T14:52:47.420Z,34.42
2023-07-30T14:54:19.913Z,34.41
2023-07-30T14:55:52.228Z,34.42
2023-07-30T14:57:24.982Z,34.40
2023-07-30T14:58:57.281Z,34.44
2023-07-30T15:00:29.554Z,34.44
2023-07-30T15:02:02.200Z,34.43
2023-07-30T15:03:34.458Z,34.50
2023-07-30T15:05:07.558Z,34.40
2023-07-30T15:06:40.266Z,34.35
2023-07-30T15:08:13.080Z,34.36
2023-07-30T15:09:47.477Z,34.37
2023-07-30T15:11:19.831Z,34.42
2023-07-30T15:12:52.279Z,34.45
2023-07-30T15:14:24.666Z,34.46
2023-07-30T15:15:57.085Z,34.43
2023-07-30T15:17:29.440Z,34.39
2023-07-30T15:19:02.075Z,34.35
2023-07-30T15:20:34.508Z,34.27
2023-07-30T15:22:07.187Z,34.27
2023-07-30T15:23:39.619Z,34.20
2023-07-30T15:25:12.024Z,34.15
2023-07-30T15:26:44.522Z,34.16
2023-07-30T15:28:16.957Z,34.13
2023-07-30T15:29:49.462Z,34.12
2023-07-30T15:31:21.828Z,34.10
2023-07-30T15:32:54.250Z,34.06
2023-07-30T15:34:26.717Z,34.01
2023-07-30T15:35:59.237Z,33.96
2023-07-30T15:37:31.531Z,33.91
2023-07-30T15:39:04.347Z,33.85
2023-07-30T15:40:39.904Z,33.84
2023-07-30T15:42:12.624Z,33.73
2023-07-30T15:43:45.271Z,33.65
2023-07-30T15:45:19.163Z,33.54
2023-07-30T15:46:52.095Z,33.52
2023-07-30T15:48:24.722Z,33.54
2023-07-30T15:49:59.826Z,33.54
2023-07-30T15:51:32.576Z,33.47
2023-07-30T15:53:05.284Z,33.41
2023-07-30T15:54:38.952Z,33.36
2023-07-30T15:56:11.407Z,33.29
2023-07-30T15:57:44.213Z,33.22
2023-07-30T15:59:16.253Z,33.26
2023-07-30T16:00:49.166Z,33.21
2023-07-30T16:02:21.702Z,33.22
2023-07-30T16:03:54.127Z,33.12
2023-07-30T16:05:26.438Z,33.08
2023-07-30T16:07:01.855Z,33.07
2023-07-30T16:08:37.825Z,33.06
2023-07-30T16:10:10.623Z,33.05
2023-07-30T16:11:43.028Z,33.01
2023-07-30T16:13:15.458Z,32.96
2023-07-30T16:14:47.776Z,32.90
2023-07-30T16:16:20.067Z,32.86
2023-07-30T16:17:52.363Z,32.84
2023-07-30T16:19:24.668Z,32.81
2023-07-30T16:21:06.640Z,32.80
2023-07-30T16:22:38.996Z,32.72
2023-07-30T16:24:11.633Z,32.65
2023-07-30T16:25:44.071Z,32.60
2023-07-30T16:27:19.563Z,32.55
2023-07-30T16:28:52.040Z,32.52
2023-07-30T16:30:26.798Z,32.50
2023-07-30T16:32:00.817Z,32.49
2023-07-30T16:33:32.809Z,32.52
2023-07-30T16:35:05.309Z,32.44
2023-07-30T16:36:37.932Z,32.40
2023-07-30T16:38:11.267Z,32.37
2023-07-30T16:39:43.541Z,32.33
2023-07-30T16:41:15.972Z,32.30
2023-07-30T16:42:49.459Z,32.32
2023-07-30T16:44:24.307Z,32.35
2023-07-30T16:46:01.475Z,32.40
2023-07-30T16:47:34.255Z,32.33
2023-07-30T16:49:06.547Z,32.27
2023-07-30T16:50:39.731Z,32.20
2023-07-30T16:52:11.971Z,32.11
2023-07-30T16:53:44.236Z,31.99
2023-07-30T16:55:16.655Z,31.89
2023-07-30T16:56:49.114Z,31.76
2023-07-30T16:58:21.470Z,31.65
2023-07-30T16:59:53.677Z,31.57
2023-07-30T17:01:26.450Z,31.48
2023-07-30T17:02:58.794Z,31.37
2023-07-30T17:04:31.338Z,31.23
2023-07-30T17:06:03.927Z,31.12
2023-07-30T17:07:36.154Z,30.98
2023-07-30T17:09:08.644Z,30.86
2023-07-30T17:10:41.843Z,30.74
2023-07-30T17:12:14.029Z,30.59
2023-07-30T17:13:46.354Z,30.41
2023-07-30T17:15:18.661Z,30.27
2023-07-30T17:16:51.095Z,30.16
2023-07-30T17:18:23.310Z,30.04
2023-07-30T17:19:57.199Z,29.92
2023-07-30T17:21:30.817Z,29.79
2023-07-30T17:23:03.184Z,29.65
2023-07-30T17:24:35.758Z,29.52
2023-07-30T17:26:08.482Z,29.39
2023-07-30T17:27:40.813Z,29.24
2023-07-30T17:29:13.145Z,29.11
2023-07-30T17:30:45.454Z,29.00
2023-07-30T17:32:18.128Z,28.89
2023-07-30T17:33:50.670Z,28.81
2023-07-30T17:35:23.011Z,28.72
2023-07-30T17:36:55.298Z,28.67
2023-07-30T17:38:28.655Z,28.59
2023-07-30T17:41:32.311Z,28.45
2023-07-30T17:43:05.807Z,28.38
2023-07-30T17:44:38.344Z,28.32
2023-07-30T17:46:10.695Z,28.26
2023-07-30T17:47:43.026Z,28.22
2023-07-30T17:49:15.303Z,28.17
2023-07-30T17:50:48.833Z,28.10
2023-07-30T17:52:21.319Z,28.02
2023-07-30T17:53:54.222Z,27.94
2023-07-30T17:55:27.092Z,27.90
2023-07-30T17:56:59.569Z,27.82
2023-07-30T17:58:31.745Z,27.75
2023-07-30T18:00:05.289Z,27.68
2023-07-30T18:01:40.159Z,27.60
2023-07-30T18:03:13.594Z,27.56
2023-07-30T18:04:46.380Z,27.47
2023-07-30T18:06:18.777Z,27.40
2023-07-30T18:07:53.009Z,27.32
2023-07-30T18:09:25.652Z,27.23
2023-07-30T18:10:59.352Z,27.17
2023-07-30T18:12:31.727Z,27.08
2023-07-30T18:14:04.017Z,27.01
2023-07-30T18:15:36.446Z,26.94
2023-07-30T18:17:08.712Z,26.83
2023-07-30T18:18:40.961Z,26.78
2023-07-30T18:20:13.278Z,26.72
2023-07-30T18:21:45.577Z,26.66
2023-07-30T18:23:17.925Z,26.62
2023-07-30T18:24:50.154Z,26.56
2023-07-30T18:26:22.385Z,26.47
2023-07-30T18:27:54.700Z,26.37
2023-07-30T18:29:26.968Z,26.24
2023-07-30T18:30:59.155Z,26.14
2023-07-30T18:32:32.310Z,26.05
2023-07-30T18:34:04.497Z,26.00
2023-07-30T18:35:36.806Z,25.95
2023-07-30T18:37:09.215Z,25.91
2023-07-30T18:38:41.395Z,25.86
2023-07-30T18:40:13.876Z,25.80
2023-07-30T18:41:46.198Z,25.73
2023-07-30T18:43:20.372Z,25.66
2023-07-30T18:44:57.285Z,25.62
2023-07-30T18:46:29.747Z,25.51
2023-07-30T18:48:04.237Z,25.40
2023-07-30T18:49:36.807Z,25.33
2023-07-30T18:51:09.293Z,25.29
2023-07-30T18:52:41.612Z,25.24
2023-07-30T18:54:15.649Z,25.21
2023-07-30T18:55:48.389Z,25.15
2023-07-30T18:57:22.352Z,25.13
2023-07-30T18:58:54.778Z,25.09
2023-07-30T19:00:27.545Z,25.08
2023-07-30T19:01:59.995Z,25.06
2023-07-30T19:03:32.929Z,25.03
2023-07-30T19:05:05.526Z,25.00
2023-07-30T19:06:38.087Z,24.98
2023-07-30T19:08:10.615Z,24.95
2023-07-30T19:09:42.800Z,24.94
2023-07-30T19:11:15.069Z,24.91
2023-07-30T19:12:48.137Z,24.90
2023-07-30T19:14:20.400Z,24.86
2023-07-30T19:15:56.303Z,24.84
2023-07-30T19:17:29.117Z,24.80
2023-07-30T19:19:02.507Z,24.78
2023-07-30T19:20:35.168Z,24.73
2023-07-30T19:22:07.588Z,24.69
2023-07-30T19:23:41.177Z,24.65
2023-07-30T19:25:13.968Z,24.57
2023-07-30T19:26:46.663Z,24.50
2023-07-30T19:28:20.817Z,24.49
2023-07-30T19:29:53.416Z,24.42
2023-07-30T19:31:26.450Z,24.39
2023-07-30T19:32:59.647Z,24.40
2023-07-30T19:34:32.191Z,24.39
2023-07-30T19:36:05.096Z,24.34
2023-07-30T19:37:37.601Z,24.29
2023-07-30T19:39:09.934Z,24.24
2023-07-30T19:40:42.512Z,24.21
2023-07-30T19:42:14.741Z,24.19
2023-07-30T19:43:48.264Z,24.19
2023-07-30T19:45:20.824Z,24.22
2023-07-30T19:46:53.550Z,24.31
2023-07-30T19:48:26.617Z,24.29
2023-07-30T19:50:01.628Z,24.35
2023-07-30T19:51:35.061Z,24.29
2023-07-30T19:53:07.363Z,24.26
2023-07-30T19:54:39.731Z,24.25
2023-07-30T19:56:12.307Z,24.22
2023-07-30T19:57:44.570Z,24.19
2023-07-30T19:59:16.898Z,24.16
2023-07-30T20:00:49.104Z,24.19
2023-07-30T20:02:21.532Z,24.18
2023-07-30T20:03:53.889Z,24.19
2023-07-30T20:05:26.220Z,24.19
2023-07-30T20:06:59.026Z,24.18
2023-07-30T20:08:31.559Z,24.18
2023-07-30T20:10:04.638Z,24.16
2023-07-30T20:11:37.088Z,24.15
2023-07-30T20:13:09.368Z,24.15
2023-07-30T20:14:41.916Z,24.14